sensor_id;sensor_type;location;lat;lon;timestamp;P1;durP1;ratioP1;P2;durP2;ratioP2
1995;SDS011;38556;47.068;15.408;2022-12-29T00:00:19;40.30;;;36.58;;
1995;SDS011;38556;47.068;15.408;2022-12-29T00:02:46;42.00;;;37.85;;
1995;SDS011;38556;47.068;15.408;2022-12-29T00:05:15;40.58;;;36.60;;
1995;SDS011;38556;47.068;15.408;2022-12-29T00:07:43;41.78;;;37.75;;
1995;SDS011;38556;47.068;15.408;2022-12-29T00:10:10;42.58;;;38.30;;
1995;SDS011;38556;47.068;15.408;2022-12-29T00:12:37;42.60;;;38.40;;
1995;SDS011;38556;47.068;15.408;2022-12-29T00:15:22;42.25;;;38.17;;
1995;SDS011;38556;47.068;15.408;2022-12-29T00:18:04;42.42;;;38.25;;
1995;SDS011;38556;47.068;15.408;2022-12-29T00:20:34;42.00;;;38.10;;
1995;SDS011;38556;47.068;15.408;2022-12-29T00:23:19;42.47;;;38.38;;
1995;SDS011;38556;47.068;15.408;2022-12-29T00:26:08;42.67;;;38.38;;
1995;SDS011;38556;47.068;15.408;2022-12-29T00:28:57;41.83;;;37.42;;
1995;SDS011;38556;47.068;15.408;2022-12-29T00:31:42;43.88;;;39.30;;
1995;SDS011;38556;47.068;15.408;2022-12-29T00:34:27;42.50;;;37.95;;
1995;SDS011;38556;47.068;15.408;2022-12-29T00:37:15;42.28;;;37.60;;
1995;SDS011;38556;47.068;15.408;2022-12-29T00:40:03;42.35;;;37.80;;
1995;SDS011;38556;47.068;15.408;2022-12-29T00:42:45;37.35;;;33.67;;
1995;SDS011;38556;47.068;15.408;2022-12-29T00:45:30;38.20;;;34.65;;
1995;SDS011;38556;47.068;15.408;2022-12-29T00:47:57;39.00;;;35.20;;
1995;SDS011;38556;47.068;15.408;2022-12-29T00:50:24;37.92;;;34.42;;
1995;SDS011;38556;47.068;15.408;2022-12-29T00:52:52;39.15;;;35.47;;
1995;SDS011;38556;47.068;15.408;2022-12-29T00:55:19;39.58;;;35.75;;
1995;SDS011;38556;47.068;15.408;2022-12-29T00:57:46;38.33;;;34.60;;
1995;SDS011;38556;47.068;15.408;2022-12-29T01:00:14;40.38;;;36.28;;
1995;SDS011;38556;47.068;15.408;2022-12-29T01:02:41;40.85;;;35.22;;
1995;SDS011;38556;47.068;15.408;2022-12-29T01:05:09;42.03;;;36.35;;
1995;SDS011;38556;47.068;15.408;2022-12-29T01:07:36;41.95;;;37.45;;
1995;SDS011;38556;47.068;15.408;2022-12-29T01:10:06;40.35;;;36.42;;
1995;SDS011;38556;47.068;15.408;2022-12-29T01:12:35;39.67;;;35.40;;
1995;SDS011;38556;47.068;15.408;2022-12-29T01:15:11;38.58;;;34.47;;
1995;SDS011;38556;47.068;15.408;2022-12-29T01:17:39;39.05;;;35.13;;
1995;SDS011;38556;47.068;15.408;2022-12-29T01:20:06;37.95;;;34.55;;
1995;SDS011;38556;47.068;15.408;2022-12-29T01:22:35;35.97;;;32.70;;
1995;SDS011;38556;47.068;15.408;2022-12-29T01:25:02;35.53;;;32.13;;
1995;SDS011;38556;47.068;15.408;2022-12-29T01:27:31;36.78;;;33.22;;
1995;SDS011;38556;47.068;15.408;2022-12-29T01:29:58;39.03;;;35.40;;
1995;SDS011;38556;47.068;15.408;2022-12-29T01:32:25;38.83;;;35.10;;
1995;SDS011;38556;47.068;15.408;2022-12-29T01:34:53;38.25;;;34.58;;
1995;SDS011;38556;47.068;15.408;2022-12-29T01:37:20;39.22;;;35.22;;
1995;SDS011;38556;47.068;15.408;2022-12-29T01:39:48;36.80;;;33.38;;
1995;SDS011;38556;47.068;15.408;2022-12-29T01:42:16;40.03;;;36.13;;
1995;SDS011;38556;47.068;15.408;2022-12-29T01:44:50;38.53;;;34.33;;
1995;SDS011;38556;47.068;15.408;2022-12-29T01:47:31;36.10;;;32.97;;
1995;SDS011;38556;47.068;15.408;2022-12-29T01:50:04;38.38;;;34.78;;
1995;SDS011;38556;47.068;15.408;2022-12-29T01:52:36;39.80;;;36.03;;
1995;SDS011;38556;47.068;15.408;2022-12-29T01:55:09;38.50;;;35.10;;
1995;SDS011;38556;47.068;15.408;2022-12-29T01:57:38;39.13;;;35.70;;
1995;SDS011;38556;47.068;15.408;2022-12-29T02:00:12;38.17;;;34.90;;
1995;SDS011;38556;47.068;15.408;2022-12-29T02:02:40;35.85;;;32.92;;
1995;SDS011;38556;47.068;15.408;2022-12-29T02:05:11;36.83;;;33.42;;
1995;SDS011;38556;47.068;15.408;2022-12-29T02:07:44;35.63;;;32.60;;
1995;SDS011;38556;47.068;15.408;2022-12-29T02:10:13;36.67;;;33.17;;
1995;SDS011;38556;47.068;15.408;2022-12-29T02:12:41;36.95;;;33.55;;
1995;SDS011;38556;47.068;15.408;2022-12-29T02:15:10;37.15;;;33.85;;
1995;SDS011;38556;47.068;15.408;2022-12-29T02:17:41;37.47;;;34.00;;
1995;SDS011;38556;47.068;15.408;2022-12-29T02:20:25;37.22;;;33.70;;
1995;SDS011;38556;47.068;15.408;2022-12-29T02:23:17;34.70;;;31.75;;
1995;SDS011;38556;47.068;15.408;2022-12-29T02:26:16;35.05;;;32.00;;
1995;SDS011;38556;47.068;15.408;2022-12-29T02:32:23;34.55;;;31.63;;
1995;SDS011;38556;47.068;15.408;2022-12-29T02:34:58;35.42;;;31.80;;
1995;SDS011;38556;47.068;15.408;2022-12-29T02:37:35;35.33;;;31.63;;
1995;SDS011;38556;47.068;15.408;2022-12-29T02:40:13;35.65;;;32.25;;
1995;SDS011;38556;47.068;15.408;2022-12-29T02:42:50;33.95;;;30.85;;
1995;SDS011;38556;47.068;15.408;2022-12-29T02:45:25;34.03;;;30.88;;
1995;SDS011;38556;47.068;15.408;2022-12-29T02:48:00;32.95;;;30.35;;
1995;SDS011;38556;47.068;15.408;2022-12-29T02:50:35;35.03;;;31.60;;
1995;SDS011;38556;47.068;15.408;2022-12-29T02:53:08;34.47;;;31.45;;
1995;SDS011;38556;47.068;15.408;2022-12-29T02:55:38;35.50;;;32.15;;
1995;SDS011;38556;47.068;15.408;2022-12-29T02:58:17;37.33;;;33.80;;
1995;SDS011;38556;47.068;15.408;2022-12-29T03:00:53;34.88;;;31.88;;
1995;SDS011;38556;47.068;15.408;2022-12-29T03:03:32;35.35;;;32.17;;
1995;SDS011;38556;47.068;15.408;2022-12-29T03:06:13;37.55;;;34.08;;
1995;SDS011;38556;47.068;15.408;2022-12-29T03:08:49;35.15;;;31.95;;
1995;SDS011;38556;47.068;15.408;2022-12-29T03:11:21;34.97;;;31.88;;
1995;SDS011;38556;47.068;15.408;2022-12-29T03:14:12;34.97;;;31.92;;
1995;SDS011;38556;47.068;15.408;2022-12-29T03:17:03;34.10;;;31.20;;
1995;SDS011;38556;47.068;15.408;2022-12-29T03:19:39;31.70;;;29.20;;
1995;SDS011;38556;47.068;15.408;2022-12-29T03:22:12;32.97;;;29.98;;
1995;SDS011;38556;47.068;15.408;2022-12-29T03:24:57;34.05;;;30.98;;
1995;SDS011;38556;47.068;15.408;2022-12-29T03:27:28;35.63;;;32.28;;
1995;SDS011;38556;47.068;15.408;2022-12-29T03:29:59;35.47;;;32.20;;
1995;SDS011;38556;47.068;15.408;2022-12-29T03:32:31;34.38;;;31.60;;
1995;SDS011;38556;47.068;15.408;2022-12-29T03:35:03;34.28;;;31.20;;
1995;SDS011;38556;47.068;15.408;2022-12-29T03:37:34;32.95;;;30.10;;
1995;SDS011;38556;47.068;15.408;2022-12-29T03:40:06;32.72;;;29.75;;
1995;SDS011;38556;47.068;15.408;2022-12-29T03:42:34;32.40;;;29.48;;
1995;SDS011;38556;47.068;15.408;2022-12-29T03:45:04;33.10;;;30.25;;
1995;SDS011;38556;47.068;15.408;2022-12-29T03:47:32;35.55;;;32.13;;
1995;SDS011;38556;47.068;15.408;2022-12-29T03:50:00;34.67;;;31.48;;
1995;SDS011;38556;47.068;15.408;2022-12-29T03:52:28;34.70;;;31.70;;
1995;SDS011;38556;47.068;15.408;2022-12-29T03:54:56;34.47;;;31.38;;
1995;SDS011;38556;47.068;15.408;2022-12-29T03:57:23;34.83;;;31.23;;
1995;SDS011;38556;47.068;15.408;2022-12-29T03:59:51;36.50;;;32.63;;
1995;SDS011;38556;47.068;15.408;2022-12-29T04:02:18;35.80;;;32.63;;
1995;SDS011;38556;47.068;15.408;2022-12-29T04:04:46;37.20;;;33.60;;
1995;SDS011;38556;47.068;15.408;2022-12-29T04:07:13;34.55;;;31.55;;
1995;SDS011;38556;47.068;15.408;2022-12-29T04:09:42;35.67;;;32.28;;
1995;SDS011;38556;47.068;15.408;2022-12-29T04:12:09;36.38;;;33.10;;
1995;SDS011;38556;47.068;15.408;2022-12-29T04:14:36;34.92;;;31.95;;
1995;SDS011;38556;47.068;15.408;2022-12-29T04:17:03;34.83;;;31.83;;
1995;SDS011;38556;47.068;15.408;2022-12-29T04:19:31;34.83;;;31.73;;
1995;SDS011;38556;47.068;15.408;2022-12-29T04:21:58;36.42;;;33.10;;
1995;SDS011;38556;47.068;15.408;2022-12-29T04:24:26;35.63;;;32.42;;
1995;SDS011;38556;47.068;15.408;2022-12-29T04:26:54;33.38;;;30.60;;
1995;SDS011;38556;47.068;15.408;2022-12-29T04:29:22;34.70;;;31.55;;
1995;SDS011;38556;47.068;15.408;2022-12-29T04:31:49;32.33;;;29.25;;
1995;SDS011;38556;47.068;15.408;2022-12-29T04:34:16;31.88;;;29.17;;
1995;SDS011;38556;47.068;15.408;2022-12-29T04:36:44;32.20;;;29.40;;
1995;SDS011;38556;47.068;15.408;2022-12-29T04:39:11;30.70;;;28.23;;
1995;SDS011;38556;47.068;15.408;2022-12-29T04:41:39;29.13;;;26.73;;
1995;SDS011;38556;47.068;15.408;2022-12-29T04:44:07;31.35;;;28.70;;
1995;SDS011;38556;47.068;15.408;2022-12-29T04:46:35;30.02;;;27.63;;
1995;SDS011;38556;47.068;15.408;2022-12-29T04:49:02;28.38;;;26.17;;
1995;SDS011;38556;47.068;15.408;2022-12-29T04:51:33;30.60;;;27.92;;
1995;SDS011;38556;47.068;15.408;2022-12-29T04:54:01;31.15;;;28.35;;
1995;SDS011;38556;47.068;15.408;2022-12-29T04:56:29;29.35;;;26.65;;
1995;SDS011;38556;47.068;15.408;2022-12-29T04:58:56;28.67;;;26.25;;
1995;SDS011;38556;47.068;15.408;2022-12-29T05:01:25;32.05;;;29.33;;
1995;SDS011;38556;47.068;15.408;2022-12-29T05:03:52;33.13;;;30.42;;
1995;SDS011;38556;47.068;15.408;2022-12-29T05:06:19;30.38;;;27.88;;
1995;SDS011;38556;47.068;15.408;2022-12-29T05:08:47;30.20;;;27.75;;
1995;SDS011;38556;47.068;15.408;2022-12-29T05:11:14;31.63;;;28.90;;
1995;SDS011;38556;47.068;15.408;2022-12-29T05:13:41;31.42;;;28.98;;
1995;SDS011;38556;47.068;15.408;2022-12-29T05:16:11;31.17;;;28.58;;
1995;SDS011;38556;47.068;15.408;2022-12-29T05:18:40;33.33;;;30.58;;
1995;SDS011;38556;47.068;15.408;2022-12-29T05:21:07;32.50;;;29.95;;
1995;SDS011;38556;47.068;15.408;2022-12-29T05:23:34;33.28;;;30.40;;
1995;SDS011;38556;47.068;15.408;2022-12-29T05:26:01;33.83;;;30.95;;
1995;SDS011;38556;47.068;15.408;2022-12-29T05:28:28;31.70;;;28.85;;
1995;SDS011;38556;47.068;15.408;2022-12-29T05:30:56;32.10;;;29.40;;
1995;SDS011;38556;47.068;15.408;2022-12-29T05:33:23;31.95;;;29.42;;
1995;SDS011;38556;47.068;15.408;2022-12-29T05:35:52;32.50;;;30.00;;
1995;SDS011;38556;47.068;15.408;2022-12-29T05:38:19;31.40;;;29.00;;
1995;SDS011;38556;47.068;15.408;2022-12-29T05:40:46;32.72;;;29.83;;
1995;SDS011;38556;47.068;15.408;2022-12-29T05:43:14;33.03;;;30.33;;
1995;SDS011;38556;47.068;15.408;2022-12-29T05:45:41;32.42;;;29.23;;
1995;SDS011;38556;47.068;15.408;2022-12-29T05:48:09;31.60;;;28.98;;
1995;SDS011;38556;47.068;15.408;2022-12-29T05:50:36;29.67;;;27.23;;
1995;SDS011;38556;47.068;15.408;2022-12-29T05:53:05;31.52;;;28.92;;
1995;SDS011;38556;47.068;15.408;2022-12-29T05:55:32;30.25;;;27.95;;
1995;SDS011;38556;47.068;15.408;2022-12-29T05:57:59;31.40;;;28.73;;
1995;SDS011;38556;47.068;15.408;2022-12-29T06:00:26;29.15;;;26.85;;
1995;SDS011;38556;47.068;15.408;2022-12-29T06:02:54;28.90;;;26.73;;
1995;SDS011;38556;47.068;15.408;2022-12-29T06:05:22;29.10;;;26.90;;
1995;SDS011;38556;47.068;15.408;2022-12-29T06:07:49;30.52;;;28.00;;
1995;SDS011;38556;47.068;15.408;2022-12-29T06:10:18;30.60;;;28.00;;
1995;SDS011;38556;47.068;15.408;2022-12-29T06:12:45;29.73;;;27.20;;
1995;SDS011;38556;47.068;15.408;2022-12-29T06:15:13;30.23;;;27.77;;
1995;SDS011;38556;47.068;15.408;2022-12-29T06:17:40;28.27;;;26.10;;
1995;SDS011;38556;47.068;15.408;2022-12-29T06:20:08;28.90;;;26.60;;
1995;SDS011;38556;47.068;15.408;2022-12-29T06:22:36;31.67;;;28.92;;
1995;SDS011;38556;47.068;15.408;2022-12-29T06:25:04;31.98;;;29.08;;
1995;SDS011;38556;47.068;15.408;2022-12-29T06:27:33;30.20;;;27.77;;
1995;SDS011;38556;47.068;15.408;2022-12-29T06:30:00;31.70;;;29.17;;
1995;SDS011;38556;47.068;15.408;2022-12-29T06:32:28;31.65;;;29.00;;
1995;SDS011;38556;47.068;15.408;2022-12-29T06:34:55;30.70;;;28.08;;
1995;SDS011;38556;47.068;15.408;2022-12-29T06:37:22;32.30;;;29.80;;
1995;SDS011;38556;47.068;15.408;2022-12-29T06:39:50;32.35;;;29.45;;
1995;SDS011;38556;47.068;15.408;2022-12-29T06:42:17;31.10;;;28.58;;
1995;SDS011;38556;47.068;15.408;2022-12-29T06:44:46;32.80;;;29.90;;
1995;SDS011;38556;47.068;15.408;2022-12-29T06:47:14;33.85;;;30.60;;
1995;SDS011;38556;47.068;15.408;2022-12-29T06:49:41;33.50;;;30.67;;
1995;SDS011;38556;47.068;15.408;2022-12-29T06:52:08;33.40;;;30.38;;
1995;SDS011;38556;47.068;15.408;2022-12-29T06:54:35;34.78;;;31.73;;
1995;SDS011;38556;47.068;15.408;2022-12-29T06:57:03;36.40;;;33.00;;
1995;SDS011;38556;47.068;15.408;2022-12-29T06:59:30;34.45;;;31.33;;
1995;SDS011;38556;47.068;15.408;2022-12-29T07:01:59;36.20;;;32.92;;
1995;SDS011;38556;47.068;15.408;2022-12-29T07:04:27;37.60;;;33.78;;
1995;SDS011;38556;47.068;15.408;2022-12-29T07:06:54;36.63;;;33.33;;
1995;SDS011;38556;47.068;15.408;2022-12-29T07:09:22;36.72;;;33.13;;
1995;SDS011;38556;47.068;15.408;2022-12-29T07:11:49;36.55;;;33.17;;
1995;SDS011;38556;47.068;15.408;2022-12-29T07:14:17;36.35;;;33.22;;
1995;SDS011;38556;47.068;15.408;2022-12-29T07:16:44;37.22;;;33.70;;
1995;SDS011;38556;47.068;15.408;2022-12-29T07:19:13;37.25;;;33.95;;
1995;SDS011;38556;47.068;15.408;2022-12-29T07:21:40;39.00;;;35.22;;
1995;SDS011;38556;47.068;15.408;2022-12-29T07:24:07;37.00;;;33.80;;
1995;SDS011;38556;47.068;15.408;2022-12-29T07:26:35;39.78;;;36.25;;
1995;SDS011;38556;47.068;15.408;2022-12-29T07:29:02;40.10;;;36.20;;
1995;SDS011;38556;47.068;15.408;2022-12-29T07:31:30;39.88;;;35.80;;
1995;SDS011;38556;47.068;15.408;2022-12-29T07:33:57;38.35;;;34.75;;
1995;SDS011;38556;47.068;15.408;2022-12-29T07:36:27;44.33;;;36.45;;
1995;SDS011;38556;47.068;15.408;2022-12-29T07:38:54;38.65;;;35.10;;
1995;SDS011;38556;47.068;15.408;2022-12-29T07:41:21;37.92;;;34.45;;
1995;SDS011;38556;47.068;15.408;2022-12-29T07:43:48;38.65;;;35.25;;
1995;SDS011;38556;47.068;15.408;2022-12-29T07:46:16;36.50;;;33.15;;
1995;SDS011;38556;47.068;15.408;2022-12-29T07:48:43;37.38;;;33.97;;
1995;SDS011;38556;47.068;15.408;2022-12-29T07:51:10;36.30;;;33.20;;
1995;SDS011;38556;47.068;15.408;2022-12-29T07:53:39;34.28;;;31.27;;
1995;SDS011;38556;47.068;15.408;2022-12-29T07:56:06;36.88;;;33.35;;
1995;SDS011;38556;47.068;15.408;2022-12-29T07:58:33;34.53;;;31.33;;
1995;SDS011;38556;47.068;15.408;2022-12-29T08:01:01;34.35;;;31.65;;
1995;SDS011;38556;47.068;15.408;2022-12-29T08:03:28;34.60;;;31.65;;
1995;SDS011;38556;47.068;15.408;2022-12-29T08:05:56;33.78;;;30.65;;
1995;SDS011;38556;47.068;15.408;2022-12-29T08:08:23;36.67;;;33.58;;
1995;SDS011;38556;47.068;15.408;2022-12-29T08:10:52;34.25;;;31.15;;
1995;SDS011;38556;47.068;15.408;2022-12-29T08:13:19;35.78;;;32.53;;
1995;SDS011;38556;47.068;15.408;2022-12-29T08:15:47;34.85;;;32.03;;
1995;SDS011;38556;47.068;15.408;2022-12-29T08:18:14;34.53;;;31.45;;
1995;SDS011;38556;47.068;15.408;2022-12-29T08:20:41;32.08;;;29.33;;
1995;SDS011;38556;47.068;15.408;2022-12-29T08:23:08;35.30;;;32.30;;
1995;SDS011;38556;47.068;15.408;2022-12-29T08:25:36;36.58;;;33.53;;
1995;SDS011;38556;47.068;15.408;2022-12-29T08:28:04;36.83;;;33.60;;
1995;SDS011;38556;47.068;15.408;2022-12-29T08:30:32;35.47;;;32.38;;
1995;SDS011;38556;47.068;15.408;2022-12-29T08:32:59;35.50;;;32.33;;
1995;SDS011;38556;47.068;15.408;2022-12-29T08:35:26;31.92;;;29.52;;
1995;SDS011;38556;47.068;15.408;2022-12-29T08:37:54;32.08;;;29.52;;
1995;SDS011;38556;47.068;15.408;2022-12-29T08:40:21;32.90;;;30.27;;
1995;SDS011;38556;47.068;15.408;2022-12-29T08:42:49;31.73;;;29.02;;
1995;SDS011;38556;47.068;15.408;2022-12-29T08:45:18;31.45;;;29.08;;
1995;SDS011;38556;47.068;15.408;2022-12-29T08:47:45;31.10;;;28.45;;
1995;SDS011;38556;47.068;15.408;2022-12-29T08:50:12;32.78;;;29.98;;
1995;SDS011;38556;47.068;15.408;2022-12-29T08:52:40;31.30;;;28.88;;
1995;SDS011;38556;47.068;15.408;2022-12-29T08:55:07;32.05;;;29.17;;
1995;SDS011;38556;47.068;15.408;2022-12-29T08:57:35;29.58;;;27.25;;
1995;SDS011;38556;47.068;15.408;2022-12-29T09:00:03;33.30;;;30.58;;
1995;SDS011;38556;47.068;15.408;2022-12-29T09:02:32;33.78;;;30.98;;
1995;SDS011;38556;47.068;15.408;2022-12-29T09:04:59;30.15;;;27.85;;
1995;SDS011;38556;47.068;15.408;2022-12-29T09:07:27;31.73;;;29.23;;
1995;SDS011;38556;47.068;15.408;2022-12-29T09:09:54;33.95;;;31.08;;
1995;SDS011;38556;47.068;15.408;2022-12-29T09:12:21;34.15;;;31.35;;
1995;SDS011;38556;47.068;15.408;2022-12-29T09:14:48;33.88;;;30.98;;
1995;SDS011;38556;47.068;15.408;2022-12-29T09:17:16;35.97;;;32.72;;
1995;SDS011;38556;47.068;15.408;2022-12-29T09:20:02;34.28;;;31.27;;
1995;SDS011;38556;47.068;15.408;2022-12-29T09:22:30;36.13;;;32.85;;
1995;SDS011;38556;47.068;15.408;2022-12-29T09:24:58;36.20;;;33.00;;
1995;SDS011;38556;47.068;15.408;2022-12-29T09:27:25;34.33;;;31.52;;
1995;SDS011;38556;47.068;15.408;2022-12-29T09:29:53;35.03;;;32.20;;
1995;SDS011;38556;47.068;15.408;2022-12-29T09:32:20;35.95;;;32.85;;
1995;SDS011;38556;47.068;15.408;2022-12-29T09:34:48;37.05;;;34.03;;
1995;SDS011;38556;47.068;15.408;2022-12-29T09:37:16;35.05;;;32.05;;
1995;SDS011;38556;47.068;15.408;2022-12-29T09:39:44;33.45;;;30.88;;
1995;SDS011;38556;47.068;15.408;2022-12-29T09:42:12;34.08;;;31.38;;
1995;SDS011;38556;47.068;15.408;2022-12-29T09:44:48;37.22;;;33.83;;
1995;SDS011;38556;47.068;15.408;2022-12-29T09:47:25;35.47;;;32.45;;
1995;SDS011;38556;47.068;15.408;2022-12-29T09:49:55;35.80;;;32.67;;
1995;SDS011;38556;47.068;15.408;2022-12-29T09:52:28;34.88;;;31.63;;
1995;SDS011;38556;47.068;15.408;2022-12-29T09:55:00;33.45;;;30.65;;
1995;SDS011;38556;47.068;15.408;2022-12-29T09:57:32;31.55;;;29.25;;
1995;SDS011;38556;47.068;15.408;2022-12-29T10:00:03;31.33;;;28.98;;
1995;SDS011;38556;47.068;15.408;2022-12-29T10:02:38;31.77;;;29.27;;
1995;SDS011;38556;47.068;15.408;2022-12-29T10:05:13;32.42;;;29.42;;
1995;SDS011;38556;47.068;15.408;2022-12-29T10:07:49;31.40;;;28.88;;
1995;SDS011;38556;47.068;15.408;2022-12-29T10:10:31;32.10;;;29.45;;
1995;SDS011;38556;47.068;15.408;2022-12-29T10:13:08;32.28;;;29.70;;
1995;SDS011;38556;47.068;15.408;2022-12-29T10:15:47;31.65;;;28.83;;
1995;SDS011;38556;47.068;15.408;2022-12-29T10:18:29;31.75;;;29.15;;
1995;SDS011;38556;47.068;15.408;2022-12-29T10:21:07;31.05;;;28.55;;
1995;SDS011;38556;47.068;15.408;2022-12-29T10:23:43;32.90;;;29.90;;
1995;SDS011;38556;47.068;15.408;2022-12-29T10:26:14;33.60;;;30.38;;
1995;SDS011;38556;47.068;15.408;2022-12-29T10:28:45;29.98;;;27.67;;
1995;SDS011;38556;47.068;15.408;2022-12-29T10:31:19;28.85;;;26.75;;
1995;SDS011;38556;47.068;15.408;2022-12-29T10:33:51;31.35;;;28.52;;
1995;SDS011;38556;47.068;15.408;2022-12-29T10:36:24;29.88;;;27.40;;
1995;SDS011;38556;47.068;15.408;2022-12-29T10:39:02;29.95;;;27.65;;
1995;SDS011;38556;47.068;15.408;2022-12-29T10:41:34;29.98;;;27.50;;
1995;SDS011;38556;47.068;15.408;2022-12-29T10:44:07;32.42;;;29.65;;
1995;SDS011;38556;47.068;15.408;2022-12-29T10:46:37;31.40;;;28.80;;
1995;SDS011;38556;47.068;15.408;2022-12-29T10:49:05;29.60;;;27.17;;
1995;SDS011;38556;47.068;15.408;2022-12-29T10:51:39;29.27;;;26.77;;
1995;SDS011;38556;47.068;15.408;2022-12-29T10:54:13;33.60;;;30.50;;
1995;SDS011;38556;47.068;15.408;2022-12-29T10:56:46;31.63;;;29.17;;
1995;SDS011;38556;47.068;15.408;2022-12-29T10:59:18;31.10;;;28.35;;
1995;SDS011;38556;47.068;15.408;2022-12-29T11:01:49;30.40;;;27.90;;
1995;SDS011;38556;47.068;15.408;2022-12-29T11:04:31;29.38;;;26.85;;
1995;SDS011;38556;47.068;15.408;2022-12-29T11:07:09;34.65;;;30.10;;
1995;SDS011;38556;47.068;15.408;2022-12-29T11:09:39;31.80;;;28.88;;
1995;SDS011;38556;47.068;15.408;2022-12-29T11:12:17;30.70;;;27.75;;
1995;SDS011;38556;47.068;15.408;2022-12-29T11:15:00;32.20;;;29.50;;
1995;SDS011;38556;47.068;15.408;2022-12-29T11:17:42;30.08;;;27.77;;
1995;SDS011;38556;47.068;15.408;2022-12-29T11:20:19;29.38;;;26.88;;
1995;SDS011;38556;47.068;15.408;2022-12-29T11:22:58;28.10;;;25.63;;
1995;SDS011;38556;47.068;15.408;2022-12-29T11:25:28;27.30;;;25.02;;
1995;SDS011;38556;47.068;15.408;2022-12-29T11:27:55;26.30;;;24.40;;
1995;SDS011;38556;47.068;15.408;2022-12-29T11:30:25;28.30;;;26.15;;
1995;SDS011;38556;47.068;15.408;2022-12-29T11:32:54;27.95;;;25.30;;
1995;SDS011;38556;47.068;15.408;2022-12-29T11:35:32;28.20;;;25.92;;
1995;SDS011;38556;47.068;15.408;2022-12-29T11:38:02;28.45;;;26.15;;
1995;SDS011;38556;47.068;15.408;2022-12-29T11:40:31;28.05;;;25.77;;
1995;SDS011;38556;47.068;15.408;2022-12-29T11:43:06;26.92;;;24.83;;
1995;SDS011;38556;47.068;15.408;2022-12-29T11:45:33;27.48;;;25.27;;
1995;SDS011;38556;47.068;15.408;2022-12-29T11:48:06;27.00;;;25.02;;
1995;SDS011;38556;47.068;15.408;2022-12-29T11:50:36;26.20;;;24.08;;
1995;SDS011;38556;47.068;15.408;2022-12-29T11:53:07;26.98;;;24.98;;
1995;SDS011;38556;47.068;15.408;2022-12-29T11:55:51;26.95;;;24.95;;
1995;SDS011;38556;47.068;15.408;2022-12-29T11:58:20;27.38;;;25.38;;
1995;SDS011;38556;47.068;15.408;2022-12-29T12:00:54;27.73;;;25.33;;
1995;SDS011;38556;47.068;15.408;2022-12-29T12:03:24;26.98;;;24.77;;
1995;SDS011;38556;47.068;15.408;2022-12-29T12:05:54;25.55;;;23.75;;
1995;SDS011;38556;47.068;15.408;2022-12-29T12:08:28;25.75;;;23.85;;
1995;SDS011;38556;47.068;15.408;2022-12-29T12:11:04;24.27;;;22.45;;
1995;SDS011;38556;47.068;15.408;2022-12-29T12:13:39;26.67;;;24.25;;
1995;SDS011;38556;47.068;15.408;2022-12-29T12:16:14;25.70;;;23.90;;
1995;SDS011;38556;47.068;15.408;2022-12-29T12:18:45;25.48;;;23.60;;
1995;SDS011;38556;47.068;15.408;2022-12-29T12:21:18;24.38;;;22.67;;
1995;SDS011;38556;47.068;15.408;2022-12-29T12:23:56;24.63;;;22.92;;
1995;SDS011;38556;47.068;15.408;2022-12-29T12:26:36;28.23;;;25.85;;
1995;SDS011;38556;47.068;15.408;2022-12-29T12:29:10;25.27;;;23.60;;
1995;SDS011;38556;47.068;15.408;2022-12-29T12:31:43;24.50;;;22.88;;
1995;SDS011;38556;47.068;15.408;2022-12-29T12:34:13;25.48;;;23.67;;
1995;SDS011;38556;47.068;15.408;2022-12-29T12:36:50;24.83;;;22.95;;
1995;SDS011;38556;47.068;15.408;2022-12-29T12:39:37;25.73;;;24.02;;
1995;SDS011;38556;47.068;15.408;2022-12-29T12:42:18;27.00;;;25.00;;
1995;SDS011;38556;47.068;15.408;2022-12-29T12:44:57;26.63;;;24.60;;
1995;SDS011;38556;47.068;15.408;2022-12-29T12:47:41;24.42;;;22.60;;
1995;SDS011;38556;47.068;15.408;2022-12-29T12:50:23;28.45;;;26.05;;
1995;SDS011;38556;47.068;15.408;2022-12-29T12:53:04;24.90;;;23.20;;
1995;SDS011;38556;47.068;15.408;2022-12-29T12:56:02;22.17;;;20.70;;
1995;SDS011;38556;47.068;15.408;2022-12-29T12:58:41;24.38;;;22.75;;
1995;SDS011;38556;47.068;15.408;2022-12-29T13:01:18;22.88;;;21.30;;
1995;SDS011;38556;47.068;15.408;2022-12-29T13:04:08;23.60;;;22.00;;
1995;SDS011;38556;47.068;15.408;2022-12-29T13:06:55;22.13;;;20.52;;
1995;SDS011;38556;47.068;15.408;2022-12-29T13:09:36;22.58;;;21.08;;
1995;SDS011;38556;47.068;15.408;2022-12-29T13:12:18;23.73;;;21.50;;
1995;SDS011;38556;47.068;15.408;2022-12-29T13:15:02;22.50;;;21.05;;
1995;SDS011;38556;47.068;15.408;2022-12-29T13:17:40;22.83;;;21.23;;
1995;SDS011;38556;47.068;15.408;2022-12-29T13:20:15;22.88;;;21.27;;
1995;SDS011;38556;47.068;15.408;2022-12-29T13:22:53;22.23;;;20.75;;
1995;SDS011;38556;47.068;15.408;2022-12-29T13:25:27;21.75;;;20.25;;
1995;SDS011;38556;47.068;15.408;2022-12-29T13:28:00;21.48;;;20.17;;
1995;SDS011;38556;47.068;15.408;2022-12-29T13:30:34;22.55;;;20.92;;
1995;SDS011;38556;47.068;15.408;2022-12-29T13:33:10;22.98;;;21.48;;
1995;SDS011;38556;47.068;15.408;2022-12-29T13:35:48;24.15;;;21.88;;
1995;SDS011;38556;47.068;15.408;2022-12-29T13:38:23;23.73;;;21.77;;
1995;SDS011;38556;47.068;15.408;2022-12-29T13:40:56;23.00;;;21.45;;
1995;SDS011;38556;47.068;15.408;2022-12-29T13:43:27;22.45;;;20.90;;
1995;SDS011;38556;47.068;15.408;2022-12-29T13:46:01;22.83;;;21.10;;
1995;SDS011;38556;47.068;15.408;2022-12-29T13:48:35;23.75;;;21.75;;
1995;SDS011;38556;47.068;15.408;2022-12-29T13:51:05;22.33;;;20.52;;
1995;SDS011;38556;47.068;15.408;2022-12-29T13:53:37;23.55;;;21.75;;
1995;SDS011;38556;47.068;15.408;2022-12-29T13:56:16;22.95;;;21.25;;
1995;SDS011;38556;47.068;15.408;2022-12-29T13:58:50;22.88;;;21.17;;
1995;SDS011;38556;47.068;15.408;2022-12-29T14:01:22;23.73;;;21.83;;
1995;SDS011;38556;47.068;15.408;2022-12-29T14:03:56;22.08;;;20.58;;
1995;SDS011;38556;47.068;15.408;2022-12-29T14:06:24;22.15;;;20.40;;
1995;SDS011;38556;47.068;15.408;2022-12-29T14:08:54;22.45;;;20.85;;
1995;SDS011;38556;47.068;15.408;2022-12-29T14:11:24;22.15;;;20.45;;
1995;SDS011;38556;47.068;15.408;2022-12-29T14:13:57;22.67;;;20.98;;
1995;SDS011;38556;47.068;15.408;2022-12-29T14:16:31;22.33;;;21.00;;
1995;SDS011;38556;47.068;15.408;2022-12-29T14:19:04;21.93;;;20.63;;
1995;SDS011;38556;47.068;15.408;2022-12-29T14:21:36;22.83;;;21.20;;
1995;SDS011;38556;47.068;15.408;2022-12-29T14:33:14;24.97;;;23.17;;
1995;SDS011;38556;47.068;15.408;2022-12-29T14:35:43;24.10;;;22.50;;
1995;SDS011;38556;47.068;15.408;2022-12-29T14:38:15;25.30;;;22.80;;
1995;SDS011;38556;47.068;15.408;2022-12-29T14:40:45;25.20;;;23.20;;
1995;SDS011;38556;47.068;15.408;2022-12-29T14:43:18;25.13;;;22.97;;
1995;SDS011;38556;47.068;15.408;2022-12-29T14:45:54;25.03;;;22.83;;
1995;SDS011;38556;47.068;15.408;2022-12-29T14:48:37;25.63;;;23.73;;
1995;SDS011;38556;47.068;15.408;2022-12-29T14:51:27;24.37;;;22.10;;
1995;SDS011;38556;47.068;15.408;2022-12-29T14:53:58;24.40;;;22.50;;
1995;SDS011;38556;47.068;15.408;2022-12-29T14:56:27;24.03;;;22.23;;
1995;SDS011;38556;47.068;15.408;2022-12-29T14:58:57;25.20;;;22.60;;